Hazelwood, Pennsylvania
Current Conditions -  °F | °C
As of 2:53 AM on Saturday 29 Nov 2014 (Local Time) from KAGC Reporting Station
Overcast Overcast  
Wind Chill: 21°   Ceiling: 7000
Heat Index: 28°   Visibility: 10mi
Dew Point: 17°   Wind: 7mph
Humidity: 63%   Direction: 160°SSE
Pressure: 30.16"   Gusts: NA
Location:  40.4147°N, 79.9411°W
Report Text: KAGC 290753Z 16006KT 10SM OVC070 M02/M08 A3016 RMK AO2 SLP234 T10221083
Loading
Personal Weather Stations






























Interactive Weather Map New forecast layout! Learn more

10-Day Weather Forecast

Advertisements
Track Severe Weather on mobile